sensor_id;sensor_type;location;lat;lon;timestamp;P1;durP1;ratioP1;P2;durP2;ratioP2
11139;SDS011;5624;49.388;11.350;2022-12-07T00:01:46;8.53;;;7.07;;
11139;SDS011;5624;49.388;11.350;2022-12-07T00:04:13;9.37;;;6.73;;
11139;SDS011;5624;49.388;11.350;2022-12-07T00:06:42;9.93;;;7.50;;
11139;SDS011;5624;49.388;11.350;2022-12-07T00:09:10;11.97;;;7.90;;
11139;SDS011;5624;49.388;11.350;2022-12-07T00:11:40;9.73;;;7.63;;
11139;SDS011;5624;49.388;11.350;2022-12-07T00:14:07;8.97;;;6.87;;
11139;SDS011;5624;49.388;11.350;2022-12-07T00:16:35;10.20;;;7.10;;
11139;SDS011;5624;49.388;11.350;2022-12-07T00:19:01;9.17;;;7.17;;
11139;SDS011;5624;49.388;11.350;2022-12-07T00:21:29;9.17;;;7.17;;
11139;SDS011;5624;49.388;11.350;2022-12-07T00:23:57;8.40;;;6.70;;
11139;SDS011;5624;49.388;11.350;2022-12-07T00:26:24;9.20;;;7.50;;
11139;SDS011;5624;49.388;11.350;2022-12-07T00:28:51;8.97;;;7.03;;
11139;SDS011;5624;49.388;11.350;2022-12-07T00:31:19;9.53;;;6.70;;
11139;SDS011;5624;49.388;11.350;2022-12-07T00:33:46;8.97;;;7.07;;
11139;SDS011;5624;49.388;11.350;2022-12-07T00:36:14;9.67;;;7.23;;
11139;SDS011;5624;49.388;11.350;2022-12-07T00:38:41;8.60;;;7.00;;
11139;SDS011;5624;49.388;11.350;2022-12-07T00:41:11;8.53;;;6.70;;
11139;SDS011;5624;49.388;11.350;2022-12-07T00:43:37;8.10;;;6.77;;
11139;SDS011;5624;49.388;11.350;2022-12-07T00:46:03;9.03;;;7.43;;
11139;SDS011;5624;49.388;11.350;2022-12-07T00:48:28;8.83;;;7.10;;
11139;SDS011;5624;49.388;11.350;2022-12-07T00:50:55;10.73;;;8.10;;
11139;SDS011;5624;49.388;11.350;2022-12-07T00:53:21;9.60;;;6.97;;
11139;SDS011;5624;49.388;11.350;2022-12-07T00:55:47;10.70;;;7.60;;
11139;SDS011;5624;49.388;11.350;2022-12-07T00:58:13;10.87;;;7.70;;
11139;SDS011;5624;49.388;11.350;2022-12-07T01:00:40;10.53;;;8.20;;
11139;SDS011;5624;49.388;11.350;2022-12-07T01:03:07;9.03;;;7.50;;
11139;SDS011;5624;49.388;11.350;2022-12-07T01:05:35;10.37;;;7.80;;
11139;SDS011;5624;49.388;11.350;2022-12-07T01:08:01;11.73;;;8.67;;
11139;SDS011;5624;49.388;11.350;2022-12-07T01:10:27;11.03;;;7.37;;
11139;SDS011;5624;49.388;11.350;2022-12-07T01:12:55;9.63;;;7.97;;
11139;SDS011;5624;49.388;11.350;2022-12-07T01:15:21;11.13;;;9.10;;
11139;SDS011;5624;49.388;11.350;2022-12-07T01:17:47;10.57;;;8.23;;
11139;SDS011;5624;49.388;11.350;2022-12-07T01:20:12;11.83;;;8.37;;
11139;SDS011;5624;49.388;11.350;2022-12-07T01:22:39;10.83;;;8.50;;
11139;SDS011;5624;49.388;11.350;2022-12-07T01:25:06;12.17;;;8.50;;
11139;SDS011;5624;49.388;11.350;2022-12-07T01:27:33;10.37;;;8.17;;
11139;SDS011;5624;49.388;11.350;2022-12-07T01:30:00;10.87;;;8.40;;
11139;SDS011;5624;49.388;11.350;2022-12-07T01:32:26;11.93;;;8.00;;
11139;SDS011;5624;49.388;11.350;2022-12-07T01:34:51;11.07;;;9.40;;
11139;SDS011;5624;49.388;11.350;2022-12-07T01:37:17;12.33;;;9.10;;
11139;SDS011;5624;49.388;11.350;2022-12-07T01:39:43;10.83;;;8.03;;
11139;SDS011;5624;49.388;11.350;2022-12-07T01:42:09;13.93;;;9.73;;
11139;SDS011;5624;49.388;11.350;2022-12-07T01:47:39;12.07;;;8.57;;
11139;SDS011;5624;49.388;11.350;2022-12-07T01:50:05;10.13;;;8.00;;
11139;SDS011;5624;49.388;11.350;2022-12-07T01:52:31;11.43;;;8.30;;
11139;SDS011;5624;49.388;11.350;2022-12-07T01:55:02;11.17;;;8.40;;
11139;SDS011;5624;49.388;11.350;2022-12-07T01:57:32;11.83;;;8.63;;
11139;SDS011;5624;49.388;11.350;2022-12-07T01:59:59;10.47;;;8.03;;
11139;SDS011;5624;49.388;11.350;2022-12-07T02:02:27;11.37;;;8.87;;
11139;SDS011;5624;49.388;11.350;2022-12-07T02:04:59;10.57;;;8.43;;
11139;SDS011;5624;49.388;11.350;2022-12-07T02:07:27;11.57;;;8.70;;
11139;SDS011;5624;49.388;11.350;2022-12-07T02:09:53;11.00;;;8.20;;
11139;SDS011;5624;49.388;11.350;2022-12-07T02:12:19;12.20;;;9.47;;
11139;SDS011;5624;49.388;11.350;2022-12-07T02:14:47;11.87;;;8.93;;
11139;SDS011;5624;49.388;11.350;2022-12-07T02:17:28;12.73;;;9.60;;
11139;SDS011;5624;49.388;11.350;2022-12-07T02:20:14;12.33;;;9.20;;
11139;SDS011;5624;49.388;11.350;2022-12-07T02:28:37;12.37;;;9.07;;
11139;SDS011;5624;49.388;11.350;2022-12-07T02:31:18;13.60;;;9.73;;
11139;SDS011;5624;49.388;11.350;2022-12-07T02:33:49;11.23;;;8.50;;
11139;SDS011;5624;49.388;11.350;2022-12-07T02:36:32;12.93;;;8.57;;
11139;SDS011;5624;49.388;11.350;2022-12-07T02:42:00;13.50;;;9.10;;
11139;SDS011;5624;49.388;11.350;2022-12-07T02:44:32;13.17;;;9.37;;
11139;SDS011;5624;49.388;11.350;2022-12-07T02:47:00;12.30;;;9.10;;
11139;SDS011;5624;49.388;11.350;2022-12-07T02:49:29;13.07;;;9.33;;
11139;SDS011;5624;49.388;11.350;2022-12-07T02:51:55;11.93;;;8.87;;
11139;SDS011;5624;49.388;11.350;2022-12-07T02:54:21;12.03;;;8.90;;
11139;SDS011;5624;49.388;11.350;2022-12-07T02:56:49;13.60;;;9.43;;
11139;SDS011;5624;49.388;11.350;2022-12-07T03:05:09;12.27;;;8.80;;
11139;SDS011;5624;49.388;11.350;2022-12-07T03:10:40;13.60;;;9.43;;
11139;SDS011;5624;49.388;11.350;2022-12-07T03:18:59;15.13;;;10.53;;
11139;SDS011;5624;49.388;11.350;2022-12-07T03:21:38;13.67;;;10.20;;
11139;SDS011;5624;49.388;11.350;2022-12-07T03:24:11;13.60;;;9.70;;
11139;SDS011;5624;49.388;11.350;2022-12-07T03:26:43;13.87;;;9.73;;
11139;SDS011;5624;49.388;11.350;2022-12-07T03:29:15;16.63;;;10.10;;
11139;SDS011;5624;49.388;11.350;2022-12-07T03:31:48;13.17;;;9.57;;
11139;SDS011;5624;49.388;11.350;2022-12-07T03:37:10;15.30;;;10.57;;
11139;SDS011;5624;49.388;11.350;2022-12-07T03:40:00;12.53;;;9.40;;
11139;SDS011;5624;49.388;11.350;2022-12-07T03:42:31;16.23;;;10.77;;
11139;SDS011;5624;49.388;11.350;2022-12-07T03:44:58;15.03;;;10.73;;
11139;SDS011;5624;49.388;11.350;2022-12-07T03:50:31;14.70;;;10.73;;
11139;SDS011;5624;49.388;11.350;2022-12-07T03:53:09;12.90;;;9.07;;
11139;SDS011;5624;49.388;11.350;2022-12-07T03:55:41;14.83;;;10.67;;
11139;SDS011;5624;49.388;11.350;2022-12-07T03:58:10;13.90;;;9.80;;
11139;SDS011;5624;49.388;11.350;2022-12-07T04:00:42;13.07;;;10.60;;
11139;SDS011;5624;49.388;11.350;2022-12-07T04:03:09;14.97;;;10.67;;
11139;SDS011;5624;49.388;11.350;2022-12-07T04:05:35;12.93;;;9.43;;
11139;SDS011;5624;49.388;11.350;2022-12-07T04:08:01;15.40;;;10.17;;
11139;SDS011;5624;49.388;11.350;2022-12-07T04:10:27;14.37;;;9.37;;
11139;SDS011;5624;49.388;11.350;2022-12-07T04:12:52;16.07;;;10.33;;
11139;SDS011;5624;49.388;11.350;2022-12-07T04:15:18;14.67;;;10.37;;
11139;SDS011;5624;49.388;11.350;2022-12-07T04:17:43;14.77;;;9.97;;
11139;SDS011;5624;49.388;11.350;2022-12-07T04:20:09;15.23;;;10.30;;
11139;SDS011;5624;49.388;11.350;2022-12-07T04:22:35;17.30;;;10.50;;
11139;SDS011;5624;49.388;11.350;2022-12-07T04:25:01;15.00;;;10.60;;
11139;SDS011;5624;49.388;11.350;2022-12-07T04:27:27;14.43;;;9.87;;
11139;SDS011;5624;49.388;11.350;2022-12-07T04:29:52;14.70;;;10.00;;
11139;SDS011;5624;49.388;11.350;2022-12-07T04:32:18;14.60;;;10.07;;
11139;SDS011;5624;49.388;11.350;2022-12-07T04:34:44;16.60;;;10.63;;
11139;SDS011;5624;49.388;11.350;2022-12-07T04:37:09;14.53;;;10.80;;
11139;SDS011;5624;49.388;11.350;2022-12-07T04:39:35;15.50;;;11.13;;
11139;SDS011;5624;49.388;11.350;2022-12-07T04:42:01;14.67;;;10.33;;
11139;SDS011;5624;49.388;11.350;2022-12-07T04:44:27;15.73;;;10.83;;
11139;SDS011;5624;49.388;11.350;2022-12-07T04:46:53;15.17;;;10.47;;
11139;SDS011;5624;49.388;11.350;2022-12-07T04:49:20;16.57;;;11.13;;
11139;SDS011;5624;49.388;11.350;2022-12-07T04:51:46;18.53;;;10.90;;
11139;SDS011;5624;49.388;11.350;2022-12-07T04:54:13;15.13;;;10.30;;
11139;SDS011;5624;49.388;11.350;2022-12-07T04:56:39;16.17;;;10.97;;
11139;SDS011;5624;49.388;11.350;2022-12-07T04:59:05;17.77;;;11.70;;
11139;SDS011;5624;49.388;11.350;2022-12-07T05:01:31;17.40;;;12.47;;
11139;SDS011;5624;49.388;11.350;2022-12-07T05:03:58;17.33;;;9.90;;
11139;SDS011;5624;49.388;11.350;2022-12-07T05:06:23;16.13;;;11.17;;
11139;SDS011;5624;49.388;11.350;2022-12-07T05:08:49;16.33;;;10.93;;
11139;SDS011;5624;49.388;11.350;2022-12-07T05:11:15;16.90;;;10.87;;
11139;SDS011;5624;49.388;11.350;2022-12-07T05:14:00;19.43;;;14.53;;
11139;SDS011;5624;49.388;11.350;2022-12-07T05:16:26;20.00;;;15.53;;
11139;SDS011;5624;49.388;11.350;2022-12-07T05:18:51;17.90;;;14.50;;
11139;SDS011;5624;49.388;11.350;2022-12-07T05:21:17;19.10;;;15.40;;
11139;SDS011;5624;49.388;11.350;2022-12-07T05:23:43;21.50;;;13.07;;
11139;SDS011;5624;49.388;11.350;2022-12-07T05:26:08;18.43;;;14.47;;
11139;SDS011;5624;49.388;11.350;2022-12-07T05:28:34;17.47;;;12.70;;
11139;SDS011;5624;49.388;11.350;2022-12-07T05:31:00;19.13;;;12.03;;
11139;SDS011;5624;49.388;11.350;2022-12-07T05:33:26;17.37;;;11.67;;
11139;SDS011;5624;49.388;11.350;2022-12-07T05:35:52;18.17;;;12.37;;
11139;SDS011;5624;49.388;11.350;2022-12-07T05:38:17;19.47;;;12.47;;
11139;SDS011;5624;49.388;11.350;2022-12-07T05:40:43;18.93;;;12.37;;
11139;SDS011;5624;49.388;11.350;2022-12-07T05:43:09;21.90;;;12.83;;
11139;SDS011;5624;49.388;11.350;2022-12-07T05:45:35;20.27;;;13.63;;
11139;SDS011;5624;49.388;11.350;2022-12-07T05:48:00;16.83;;;11.77;;
11139;SDS011;5624;49.388;11.350;2022-12-07T05:50:26;20.57;;;13.33;;
11139;SDS011;5624;49.388;11.350;2022-12-07T05:52:52;18.90;;;12.70;;
11139;SDS011;5624;49.388;11.350;2022-12-07T05:55:18;19.03;;;13.50;;
11139;SDS011;5624;49.388;11.350;2022-12-07T05:57:44;20.20;;;12.80;;
11139;SDS011;5624;49.388;11.350;2022-12-07T06:00:30;19.90;;;12.90;;
11139;SDS011;5624;49.388;11.350;2022-12-07T06:02:55;20.53;;;12.90;;
11139;SDS011;5624;49.388;11.350;2022-12-07T06:05:21;19.17;;;13.03;;
11139;SDS011;5624;49.388;11.350;2022-12-07T06:07:46;19.13;;;12.73;;
11139;SDS011;5624;49.388;11.350;2022-12-07T06:10:12;19.17;;;13.23;;
11139;SDS011;5624;49.388;11.350;2022-12-07T06:12:38;19.90;;;13.10;;
11139;SDS011;5624;49.388;11.350;2022-12-07T06:15:04;19.63;;;13.73;;
11139;SDS011;5624;49.388;11.350;2022-12-07T06:17:30;25.53;;;15.77;;
11139;SDS011;5624;49.388;11.350;2022-12-07T06:19:56;21.47;;;13.87;;
11139;SDS011;5624;49.388;11.350;2022-12-07T06:22:22;24.23;;;13.77;;
11139;SDS011;5624;49.388;11.350;2022-12-07T06:24:48;21.83;;;14.37;;
11139;SDS011;5624;49.388;11.350;2022-12-07T06:27:13;18.83;;;12.80;;
11139;SDS011;5624;49.388;11.350;2022-12-07T06:29:39;18.30;;;12.23;;
11139;SDS011;5624;49.388;11.350;2022-12-07T06:32:05;20.10;;;12.37;;
11139;SDS011;5624;49.388;11.350;2022-12-07T06:34:30;19.90;;;12.33;;
11139;SDS011;5624;49.388;11.350;2022-12-07T06:36:56;21.23;;;12.93;;
11139;SDS011;5624;49.388;11.350;2022-12-07T06:39:23;19.53;;;13.47;;
11139;SDS011;5624;49.388;11.350;2022-12-07T06:41:50;21.07;;;13.53;;
11139;SDS011;5624;49.388;11.350;2022-12-07T06:44:17;18.67;;;13.00;;
11139;SDS011;5624;49.388;11.350;2022-12-07T06:46:43;17.97;;;12.90;;
11139;SDS011;5624;49.388;11.350;2022-12-07T06:49:09;24.23;;;15.37;;
11139;SDS011;5624;49.388;11.350;2022-12-07T06:51:35;18.53;;;12.63;;
11139;SDS011;5624;49.388;11.350;2022-12-07T06:54:05;20.10;;;12.90;;
11139;SDS011;5624;49.388;11.350;2022-12-07T06:56:32;18.00;;;13.00;;
11139;SDS011;5624;49.388;11.350;2022-12-07T06:58:57;22.77;;;14.27;;
11139;SDS011;5624;49.388;11.350;2022-12-07T07:01:23;19.00;;;12.87;;
11139;SDS011;5624;49.388;11.350;2022-12-07T07:03:49;21.53;;;13.43;;
11139;SDS011;5624;49.388;11.350;2022-12-07T07:06:14;21.17;;;13.00;;
11139;SDS011;5624;49.388;11.350;2022-12-07T07:08:40;22.30;;;13.13;;
11139;SDS011;5624;49.388;11.350;2022-12-07T07:11:06;23.00;;;13.67;;
11139;SDS011;5624;49.388;11.350;2022-12-07T07:13:33;22.67;;;13.50;;
11139;SDS011;5624;49.388;11.350;2022-12-07T07:15:58;22.93;;;13.93;;
11139;SDS011;5624;49.388;11.350;2022-12-07T07:18:24;22.67;;;14.17;;
11139;SDS011;5624;49.388;11.350;2022-12-07T07:20:53;22.87;;;13.87;;
11139;SDS011;5624;49.388;11.350;2022-12-07T07:23:19;20.53;;;13.77;;
11139;SDS011;5624;49.388;11.350;2022-12-07T07:25:45;20.27;;;12.70;;
11139;SDS011;5624;49.388;11.350;2022-12-07T07:28:11;20.90;;;13.30;;
11139;SDS011;5624;49.388;11.350;2022-12-07T07:30:37;21.10;;;12.77;;
11139;SDS011;5624;49.388;11.350;2022-12-07T07:33:02;20.23;;;14.23;;
11139;SDS011;5624;49.388;11.350;2022-12-07T07:35:29;22.67;;;13.97;;
11139;SDS011;5624;49.388;11.350;2022-12-07T07:37:56;20.83;;;12.77;;
11139;SDS011;5624;49.388;11.350;2022-12-07T07:40:22;21.57;;;13.73;;
11139;SDS011;5624;49.388;11.350;2022-12-07T07:42:49;21.47;;;12.60;;
11139;SDS011;5624;49.388;11.350;2022-12-07T07:45:18;22.30;;;13.20;;
11139;SDS011;5624;49.388;11.350;2022-12-07T07:47:45;21.03;;;13.37;;
11139;SDS011;5624;49.388;11.350;2022-12-07T07:50:11;21.57;;;13.13;;
11139;SDS011;5624;49.388;11.350;2022-12-07T07:52:38;22.07;;;12.93;;
11139;SDS011;5624;49.388;11.350;2022-12-07T07:55:04;22.67;;;14.20;;
11139;SDS011;5624;49.388;11.350;2022-12-07T07:57:30;24.50;;;14.73;;
11139;SDS011;5624;49.388;11.350;2022-12-07T07:59:56;23.27;;;13.83;;
11139;SDS011;5624;49.388;11.350;2022-12-07T08:02:22;21.83;;;13.43;;
11139;SDS011;5624;49.388;11.350;2022-12-07T08:04:48;19.80;;;12.73;;
11139;SDS011;5624;49.388;11.350;2022-12-07T08:07:14;22.13;;;13.60;;
11139;SDS011;5624;49.388;11.350;2022-12-07T08:09:40;22.23;;;13.50;;
11139;SDS011;5624;49.388;11.350;2022-12-07T08:12:06;22.73;;;14.13;;
11139;SDS011;5624;49.388;11.350;2022-12-07T08:14:32;19.80;;;13.10;;
11139;SDS011;5624;49.388;11.350;2022-12-07T08:16:59;25.10;;;12.97;;
11139;SDS011;5624;49.388;11.350;2022-12-07T08:19:24;20.47;;;13.60;;
11139;SDS011;5624;49.388;11.350;2022-12-07T08:21:50;21.83;;;13.57;;
11139;SDS011;5624;49.388;11.350;2022-12-07T08:24:16;20.73;;;13.20;;
11139;SDS011;5624;49.388;11.350;2022-12-07T08:26:41;20.53;;;13.20;;
11139;SDS011;5624;49.388;11.350;2022-12-07T08:29:07;21.20;;;13.33;;
11139;SDS011;5624;49.388;11.350;2022-12-07T08:31:33;20.20;;;13.33;;
11139;SDS011;5624;49.388;11.350;2022-12-07T08:33:59;20.60;;;12.90;;
11139;SDS011;5624;49.388;11.350;2022-12-07T08:36:24;21.90;;;13.60;;
11139;SDS011;5624;49.388;11.350;2022-12-07T08:38:50;18.97;;;12.23;;
11139;SDS011;5624;49.388;11.350;2022-12-07T08:41:16;21.47;;;13.33;;
11139;SDS011;5624;49.388;11.350;2022-12-07T08:43:42;22.30;;;13.70;;
11139;SDS011;5624;49.388;11.350;2022-12-07T08:46:09;22.50;;;12.33;;
11139;SDS011;5624;49.388;11.350;2022-12-07T08:49:02;24.13;;;14.37;;
11139;SDS011;5624;49.388;11.350;2022-12-07T08:51:31;31.10;;;18.60;;
11139;SDS011;5624;49.388;11.350;2022-12-07T08:53:57;25.03;;;15.53;;
11139;SDS011;5624;49.388;11.350;2022-12-07T08:56:26;22.00;;;13.63;;
11139;SDS011;5624;49.388;11.350;2022-12-07T08:58:52;22.23;;;14.50;;
11139;SDS011;5624;49.388;11.350;2022-12-07T09:01:19;22.30;;;13.70;;
11139;SDS011;5624;49.388;11.350;2022-12-07T09:03:44;22.73;;;14.70;;
11139;SDS011;5624;49.388;11.350;2022-12-07T09:06:10;22.17;;;14.37;;
11139;SDS011;5624;49.388;11.350;2022-12-07T09:08:36;22.53;;;12.73;;
11139;SDS011;5624;49.388;11.350;2022-12-07T09:11:07;23.20;;;15.13;;
11139;SDS011;5624;49.388;11.350;2022-12-07T09:13:33;22.43;;;14.23;;
11139;SDS011;5624;49.388;11.350;2022-12-07T09:15:58;23.77;;;15.37;;
11139;SDS011;5624;49.388;11.350;2022-12-07T09:18:24;25.43;;;14.80;;
11139;SDS011;5624;49.388;11.350;2022-12-07T09:20:50;24.57;;;13.63;;
11139;SDS011;5624;49.388;11.350;2022-12-07T09:23:16;21.43;;;13.63;;
11139;SDS011;5624;49.388;11.350;2022-12-07T09:25:42;23.47;;;13.63;;
11139;SDS011;5624;49.388;11.350;2022-12-07T09:28:08;20.40;;;12.73;;
11139;SDS011;5624;49.388;11.350;2022-12-07T09:30:33;22.33;;;13.83;;
11139;SDS011;5624;49.388;11.350;2022-12-07T09:32:59;24.47;;;14.20;;
11139;SDS011;5624;49.388;11.350;2022-12-07T09:35:25;21.93;;;13.10;;
11139;SDS011;5624;49.388;11.350;2022-12-07T09:37:51;22.17;;;13.20;;
11139;SDS011;5624;49.388;11.350;2022-12-07T09:40:17;22.80;;;13.50;;
11139;SDS011;5624;49.388;11.350;2022-12-07T09:42:47;19.07;;;12.60;;
11139;SDS011;5624;49.388;11.350;2022-12-07T09:45:22;20.63;;;12.30;;
11139;SDS011;5624;49.388;11.350;2022-12-07T09:47:51;21.03;;;13.03;;
11139;SDS011;5624;49.388;11.350;2022-12-07T09:50:20;22.67;;;13.00;;
11139;SDS011;5624;49.388;11.350;2022-12-07T09:52:49;21.90;;;13.13;;
11139;SDS011;5624;49.388;11.350;2022-12-07T09:55:16;21.97;;;13.37;;
11139;SDS011;5624;49.388;11.350;2022-12-07T09:57:49;21.40;;;12.23;;
11139;SDS011;5624;49.388;11.350;2022-12-07T10:00:17;24.10;;;14.07;;
11139;SDS011;5624;49.388;11.350;2022-12-07T10:02:56;22.73;;;13.73;;
11139;SDS011;5624;49.388;11.350;2022-12-07T10:07:55;19.07;;;12.37;;
11139;SDS011;5624;49.388;11.350;2022-12-07T10:10:29;21.40;;;12.63;;
11139;SDS011;5624;49.388;11.350;2022-12-07T10:13:04;19.77;;;12.80;;
11139;SDS011;5624;49.388;11.350;2022-12-07T10:15:42;22.93;;;13.23;;
11139;SDS011;5624;49.388;11.350;2022-12-07T10:23:29;19.83;;;12.77;;
11139;SDS011;5624;49.388;11.350;2022-12-07T10:25:55;19.70;;;12.60;;
11139;SDS011;5624;49.388;11.350;2022-12-07T10:28:21;19.80;;;11.63;;
11139;SDS011;5624;49.388;11.350;2022-12-07T10:30:59;19.83;;;12.40;;
11139;SDS011;5624;49.388;11.350;2022-12-07T10:33:48;16.60;;;11.63;;
11139;SDS011;5624;49.388;11.350;2022-12-07T10:36:22;18.93;;;11.60;;
11139;SDS011;5624;49.388;11.350;2022-12-07T10:39:10;21.53;;;12.00;;
11139;SDS011;5624;49.388;11.350;2022-12-07T10:44:32;17.77;;;11.13;;
11139;SDS011;5624;49.388;11.350;2022-12-07T11:01:45;17.73;;;11.50;;
11139;SDS011;5624;49.388;11.350;2022-12-07T11:07:34;15.83;;;9.40;;
11139;SDS011;5624;49.388;11.350;2022-12-07T11:15:22;15.43;;;10.07;;
11139;SDS011;5624;49.388;11.350;2022-12-07T11:18:00;18.07;;;10.37;;
11139;SDS011;5624;49.388;11.350;2022-12-07T11:31:51;15.00;;;9.70;;
11139;SDS011;5624;49.388;11.350;2022-12-07T11:34:24;16.63;;;9.83;;
11139;SDS011;5624;49.388;11.350;2022-12-07T11:36:55;17.03;;;9.90;;
11139;SDS011;5624;49.388;11.350;2022-12-07T11:41:48;21.50;;;12.93;;
11139;SDS011;5624;49.388;11.350;2022-12-07T11:44:23;17.63;;;10.10;;
11139;SDS011;5624;49.388;11.350;2022-12-07T11:47:04;20.30;;;14.80;;
11139;SDS011;5624;49.388;11.350;2022-12-07T11:52:09;15.47;;;10.43;;
11139;SDS011;5624;49.388;11.350;2022-12-07T11:55:02;19.13;;;13.43;;
11139;SDS011;5624;49.388;11.350;2022-12-07T11:57:40;21.97;;;14.90;;
11139;SDS011;5624;49.388;11.350;2022-12-07T12:02:49;15.93;;;9.73;;
11139;SDS011;5624;49.388;11.350;2022-12-07T12:05:37;16.33;;;11.20;;
11139;SDS011;5624;49.388;11.350;2022-12-07T12:13:27;13.57;;;9.53;;
11139;SDS011;5624;49.388;11.350;2022-12-07T12:16:04;13.20;;;9.53;;
11139;SDS011;5624;49.388;11.350;2022-12-07T12:21:29;16.43;;;9.53;;
11139;SDS011;5624;49.388;11.350;2022-12-07T12:23:58;14.83;;;9.47;;
11139;SDS011;5624;49.388;11.350;2022-12-07T12:26:29;14.93;;;10.13;;
11139;SDS011;5624;49.388;11.350;2022-12-07T12:29:03;13.60;;;10.00;;
11139;SDS011;5624;49.388;11.350;2022-12-07T12:31:43;14.10;;;9.57;;
11139;SDS011;5624;49.388;11.350;2022-12-07T12:34:31;15.83;;;9.80;;
11139;SDS011;5624;49.388;11.350;2022-12-07T12:42:46;14.40;;;10.30;;
11139;SDS011;5624;49.388;11.350;2022-12-07T12:45:23;15.90;;;9.97;;
11139;SDS011;5624;49.388;11.350;2022-12-07T12:48:03;14.60;;;10.87;;
11139;SDS011;5624;49.388;11.350;2022-12-07T12:50:49;22.93;;;16.63;;
11139;SDS011;5624;49.388;11.350;2022-12-07T12:53:53;18.17;;;12.23;;
11139;SDS011;5624;49.388;11.350;2022-12-07T12:57:17;15.17;;;10.30;;
11139;SDS011;5624;49.388;11.350;2022-12-07T13:02:05;15.40;;;10.43;;
11139;SDS011;5624;49.388;11.350;2022-12-07T13:04:54;14.63;;;10.23;;
11139;SDS011;5624;49.388;11.350;2022-12-07T13:15:39;13.83;;;9.27;;
11139;SDS011;5624;49.388;11.350;2022-12-07T13:18:25;15.17;;;10.07;;
11139;SDS011;5624;49.388;11.350;2022-12-07T13:31:51;13.50;;;9.27;;
11139;SDS011;5624;49.388;11.350;2022-12-07T13:34:32;13.77;;;8.60;;
11139;SDS011;5624;49.388;11.350;2022-12-07T13:37:43;14.43;;;10.37;;
11139;SDS011;5624;49.388;11.350;2022-12-07T13:39:56;13.17;;;8.93;;
11139;SDS011;5624;49.388;11.350;2022-12-07T13:42:37;16.50;;;9.60;;
11139;SDS011;5624;49.388;11.350;2022-12-07T13:45:36;13.40;;;9.23;;
11139;SDS011;5624;49.388;11.350;2022-12-07T13:48:36;12.93;;;8.50;;
11139;SDS011;5624;49.388;11.350;2022-12-07T13:51:14;21.63;;;11.53;;
11139;SDS011;5624;49.388;11.350;2022-12-07T13:53:52;16.33;;;11.50;;
11139;SDS011;5624;49.388;11.350;2022-12-07T13:56:20;12.50;;;8.17;;
11139;SDS011;5624;49.388;11.350;2022-12-07T13:58:50;12.70;;;9.33;;
11139;SDS011;5624;49.388;11.350;2022-12-07T14:01:16;13.07;;;9.10;;
11139;SDS011;5624;49.388;11.350;2022-12-07T14:03:43;14.53;;;9.83;;
11139;SDS011;5624;49.388;11.350;2022-12-07T14:06:14;13.87;;;8.60;;
11139;SDS011;5624;49.388;11.350;2022-12-07T14:11:42;12.93;;;9.47;;
11139;SDS011;5624;49.388;11.350;2022-12-07T14:14:14;13.97;;;9.30;;
11139;SDS011;5624;49.388;11.350;2022-12-07T14:16:54;14.73;;;10.27;;
11139;SDS011;5624;49.388;11.350;2022-12-07T14:19:44;14.93;;;10.80;;
11139;SDS011;5624;49.388;11.350;2022-12-07T14:22:22;17.70;;;11.80;;
11139;SDS011;5624;49.388;11.350;2022-12-07T14:28:01;15.37;;;10.20;;
11139;SDS011;5624;49.388;11.350;2022-12-07T14:30:28;20.07;;;14.63;;
11139;SDS011;5624;49.388;11.350;2022-12-07T14:32:57;14.77;;;10.63;;
11139;SDS011;5624;49.388;11.350;2022-12-07T14:35:25;16.33;;;9.63;;
11139;SDS011;5624;49.388;11.350;2022-12-07T14:37:51;17.00;;;11.80;;
11139;SDS011;5624;49.388;11.350;2022-12-07T14:40:19;14.60;;;9.60;;
11139;SDS011;5624;49.388;11.350;2022-12-07T14:42:47;16.53;;;10.90;;
11139;SDS011;5624;49.388;11.350;2022-12-07T14:45:17;16.57;;;11.20;;
11139;SDS011;5624;49.388;11.350;2022-12-07T14:47:44;15.73;;;11.03;;
11139;SDS011;5624;49.388;11.350;2022-12-07T14:50:12;14.60;;;10.00;;
11139;SDS011;5624;49.388;11.350;2022-12-07T14:52:39;14.87;;;9.50;;
11139;SDS011;5624;49.388;11.350;2022-12-07T14:55:12;15.17;;;10.57;;
11139;SDS011;5624;49.388;11.350;2022-12-07T14:57:41;15.27;;;10.53;;
11139;SDS011;5624;49.388;11.350;2022-12-07T15:00:08;17.10;;;11.37;;
11139;SDS011;5624;49.388;11.350;2022-12-07T15:02:38;15.70;;;10.93;;
11139;SDS011;5624;49.388;11.350;2022-12-07T15:05:03;17.90;;;10.87;;
11139;SDS011;5624;49.388;11.350;2022-12-07T15:07:29;18.47;;;10.43;;
11139;SDS011;5624;49.388;11.350;2022-12-07T15:09:55;17.83;;;11.87;;
11139;SDS011;5624;49.388;11.350;2022-12-07T15:12:20;14.87;;;11.53;;
11139;SDS011;5624;49.388;11.350;2022-12-07T15:14:46;20.93;;;11.53;;
11139;SDS011;5624;49.388;11.350;2022-12-07T15:17:11;18.20;;;12.60;;
11139;SDS011;5624;49.388;11.350;2022-12-07T15:19:38;21.00;;;15.17;;
11139;SDS011;5624;49.388;11.350;2022-12-07T15:22:03;20.53;;;15.53;;
11139;SDS011;5624;49.388;11.350;2022-12-07T15:24:29;21.43;;;13.70;;
11139;SDS011;5624;49.388;11.350;2022-12-07T15:26:55;17.80;;;13.33;;
11139;SDS011;5624;49.388;11.350;2022-12-07T15:29:21;18.73;;;13.50;;
11139;SDS011;5624;49.388;11.350;2022-12-07T15:31:47;18.47;;;13.87;;
11139;SDS011;5624;49.388;11.350;2022-12-07T15:34:14;17.17;;;11.77;;
11139;SDS011;5624;49.388;11.350;2022-12-07T15:36:39;18.00;;;12.47;;
11139;SDS011;5624;49.388;11.350;2022-12-07T15:39:05;17.77;;;12.13;;
11139;SDS011;5624;49.388;11.350;2022-12-07T15:41:31;18.77;;;12.33;;
11139;SDS011;5624;49.388;11.350;2022-12-07T15:43:56;17.43;;;12.00;;
11139;SDS011;5624;49.388;11.350;2022-12-07T15:46:41;19.57;;;12.20;;
11139;SDS011;5624;49.388;11.350;2022-12-07T15:49:12;20.93;;;13.00;;
11139;SDS011;5624;49.388;11.350;2022-12-07T15:51:39;19.00;;;12.37;;
11139;SDS011;5624;49.388;11.350;2022-12-07T15:54:05;20.30;;;12.23;;
11139;SDS011;5624;49.388;11.350;2022-12-07T15:56:31;19.40;;;11.60;;
11139;SDS011;5624;49.388;11.350;2022-12-07T15:58:56;15.10;;;11.40;;
11139;SDS011;5624;49.388;11.350;2022-12-07T16:01:22;17.53;;;10.93;;
11139;SDS011;5624;49.388;11.350;2022-12-07T16:03:48;16.60;;;11.40;;
11139;SDS011;5624;49.388;11.350;2022-12-07T16:06:17;18.10;;;11.40;;
11139;SDS011;5624;49.388;11.350;2022-12-07T16:08:46;16.50;;;11.00;;
11139;SDS011;5624;49.388;11.350;2022-12-07T16:11:12;19.63;;;12.20;;
11139;SDS011;5624;49.388;11.350;2022-12-07T16:13:38;17.57;;;11.83;;
11139;SDS011;5624;49.388;11.350;2022-12-07T16:16:05;20.50;;;12.70;;
11139;SDS011;5624;49.388;11.350;2022-12-07T16:18:32;17.43;;;12.00;;
11139;SDS011;5624;49.388;11.350;2022-12-07T16:20:58;17.90;;;11.23;;
11139;SDS011;5624;49.388;11.350;2022-12-07T16:23:24;20.50;;;12.13;;
11139;SDS011;5624;49.388;11.350;2022-12-07T16:25:50;20.57;;;11.47;;
11139;SDS011;5624;49.388;11.350;2022-12-07T16:28:15;19.73;;;11.53;;
11139;SDS011;5624;49.388;11.350;2022-12-07T16:30:41;18.37;;;10.80;;
11139;SDS011;5624;49.388;11.350;2022-12-07T16:33:07;32.60;;;20.33;;
11139;SDS011;5624;49.388;11.350;2022-12-07T16:35:32;40.00;;;24.77;;
11139;SDS011;5624;49.388;11.350;2022-12-07T16:37:58;42.27;;;29.23;;
11139;SDS011;5624;49.388;11.350;2022-12-07T16:40:23;19.17;;;13.57;;
11139;SDS011;5624;49.388;11.350;2022-12-07T16:42:49;17.27;;;12.57;;
11139;SDS011;5624;49.388;11.350;2022-12-07T16:45:14;18.37;;;13.50;;